Time;durP1;ratioP1;P1;durP2;ratioP2;P2;SDS_P1;SDS_P2;PMS_P1;PMS_P2;Temp;Humidity;BMP_temperature;BMP_pressure;BME280_temperature;BME280_humidity;BME280_pressure;Samples;Min_cycle;Max_cycle;Signal;HPM_P1;HPM_P2
2024/01/06 00:02:36;;;;;;;4.27;2.40;;;4.60;99.90;;;;;;5027604;28;20671;-78
2024/01/06 00:05:23;;;;;;;3.17;2.10;;;4.60;99.90;;;;;;5025618;28;20596;-79
2024/01/06 00:08:09;;;;;;;9.23;2.30;;;4.60;99.90;;;;;;5031055;28;20482;-78
2024/01/06 00:10:56;;;;;;;5.43;2.10;;;4.50;99.90;;;;;;5025118;28;20210;-77
2024/01/06 00:13:41;;;;;;;3.90;2.40;;;4.50;99.90;;;;;;5022513;28;20212;-78
2024/01/06 00:16:27;;;;;;;5.40;1.97;;;4.50;99.90;;;;;;5026419;28;20318;-78
2024/01/06 00:19:12;;;;;;;6.78;2.25;;;4.60;99.90;;;;;;5022690;28;20460;-78
2024/01/06 00:22:00;;;;;;;4.43;2.07;;;4.50;99.90;;;;;;5026380;28;20569;-78
2024/01/06 00:24:46;;;;;;;5.30;1.90;;;4.50;99.90;;;;;;5023935;28;20835;-77
2024/01/06 00:27:31;;;;;;;5.88;2.70;;;4.50;99.90;;;;;;5027841;28;20498;-78
2024/01/06 00:30:17;;;;;;;4.83;2.50;;;4.40;99.90;;;;;;5032084;28;20304;-77
2024/01/06 00:33:03;;;;;;;5.05;2.30;;;4.40;99.90;;;;;;5033879;28;20523;-77
2024/01/06 00:35:49;;;;;;;4.28;2.50;;;4.20;99.90;;;;;;5037605;28;20213;-78
2024/01/06 00:38:36;;;;;;;5.78;2.13;;;4.20;99.90;;;;;;5029684;28;20589;-77
2024/01/06 00:41:22;;;;;;;3.67;2.50;;;4.20;99.90;;;;;;5029129;28;20281;-77
2024/01/06 00:44:07;;;;;;;4.38;2.10;;;4.20;99.90;;;;;;5042063;28;20245;-77
2024/01/06 00:46:53;;;;;;;6.13;2.78;;;4.20;99.90;;;;;;5034046;28;20209;-78
2024/01/06 00:49:39;;;;;;;8.88;2.75;;;4.30;99.90;;;;;;5024680;28;20230;-77
2024/01/06 00:52:24;;;;;;;7.10;2.35;;;4.30;99.90;;;;;;5039239;28;20285;-77
2024/01/06 00:55:11;;;;;;;6.13;2.75;;;4.20;99.90;;;;;;5036126;28;20337;-78
2024/01/06 00:57:57;;;;;;;4.30;2.03;;;4.20;99.90;;;;;;5029799;28;20319;-77
2024/01/06 01:00:42;;;;;;;12.43;2.45;;;4.30;99.90;;;;;;5029842;28;20557;-77
2024/01/06 01:03:28;;;;;;;3.13;2.00;;;4.30;99.90;;;;;;5030680;28;20230;-77
2024/01/06 01:06:14;;;;;;;3.85;2.33;;;4.30;99.90;;;;;;5027976;28;20819;-77
2024/01/06 01:08:59;;;;;;;4.25;2.20;;;4.30;99.90;;;;;;5026451;28;20241;-78
2024/01/06 01:11:47;;;;;;;7.40;2.20;;;4.30;99.90;;;;;;5024676;28;20203;-77
2024/01/06 01:14:32;;;;;;;4.97;1.88;;;4.30;99.90;;;;;;5024794;28;20818;-77
2024/01/06 01:17:18;;;;;;;4.37;1.97;;;4.20;99.90;;;;;;5026179;28;20207;-77
2024/01/06 01:20:04;;;;;;;3.35;1.75;;;4.20;99.90;;;;;;5026851;28;20797;-79
2024/01/06 01:22:50;;;;;;;4.90;2.30;;;4.10;99.90;;;;;;5031110;28;20212;-78
2024/01/06 01:25:36;;;;;;;6.45;1.90;;;4.20;99.90;;;;;;5029665;28;20819;-79
2024/01/06 01:28:23;;;;;;;5.88;2.28;;;4.20;99.90;;;;;;5025385;28;20317;-78
2024/01/06 01:31:09;;;;;;;4.07;2.30;;;4.20;99.90;;;;;;5032082;28;20209;-77
2024/01/06 01:33:54;;;;;;;4.47;2.20;;;4.30;99.90;;;;;;5032629;28;20574;-78
2024/01/06 01:36:41;;;;;;;4.30;2.53;;;4.30;99.90;;;;;;5027812;28;20479;-78
2024/01/06 01:39:26;;;;;;;12.37;5.33;;;4.40;99.90;;;;;;5029169;28;20230;-77
2024/01/06 01:42:12;;;;;;;9.55;2.45;;;4.40;99.90;;;;;;5036214;28;20474;-78
2024/01/06 01:44:59;;;;;;;8.73;2.90;;;4.50;99.90;;;;;;5031167;28;20234;-78
2024/01/06 01:47:45;;;;;;;12.40;7.55;;;4.40;99.90;;;;;;5027943;28;20297;-79
2024/01/06 01:50:31;;;;;;;18.45;10.32;;;4.40;99.90;;;;;;5023167;28;20699;-79
2024/01/06 01:53:16;;;;;;;14.45;11.18;;;4.50;99.90;;;;;;5033433;28;20202;-75
2024/01/06 01:56:04;;;;;;;18.00;12.10;;;4.50;99.90;;;;;;5024512;28;20214;-77
2024/01/06 01:58:49;;;;;;;17.00;10.57;;;4.40;99.90;;;;;;5022063;28;21212;-77
2024/01/06 02:01:37;;;;;;;16.87;10.90;;;4.50;99.90;;;;;;5027807;28;20801;-78
2024/01/06 02:04:22;;;;;;;16.50;12.95;;;4.60;99.90;;;;;;5030189;28;20837;-78
2024/01/06 02:07:08;;;;;;;23.33;15.07;;;4.70;99.90;;;;;;5030340;28;20566;-76
2024/01/06 02:09:54;;;;;;;16.90;14.63;;;4.60;99.90;;;;;;5022467;28;20218;-78
2024/01/06 02:12:39;;;;;;;19.67;15.38;;;4.70;99.90;;;;;;5026965;28;20210;-78
2024/01/06 02:15:25;;;;;;;18.50;14.82;;;4.80;99.90;;;;;;5024563;28;20254;-78
2024/01/06 02:18:12;;;;;;;20.88;15.70;;;4.80;99.90;;;;;;5029297;28;20293;-78
2024/01/06 02:20:59;;;;;;;16.60;12.93;;;4.80;99.90;;;;;;5027596;28;20213;-78
2024/01/06 02:23:47;;;;;;;15.63;11.87;;;4.80;99.90;;;;;;5025997;28;20230;-78
2024/01/06 02:26:33;;;;;;;13.90;9.85;;;4.80;99.90;;;;;;5023146;28;20462;-76
2024/01/06 02:29:19;;;;;;;11.57;9.15;;;4.90;99.90;;;;;;5033532;28;20255;-76
2024/01/06 02:32:06;;;;;;;10.80;9.23;;;5.00;99.90;;;;;;5034462;28;20276;-76
2024/01/06 02:34:52;;;;;;;17.80;10.80;;;5.00;99.90;;;;;;5031265;28;20206;-77
2024/01/06 02:37:37;;;;;;;13.55;10.43;;;5.10;99.90;;;;;;5030139;28;20805;-76
2024/01/06 02:40:24;;;;;;;9.27;5.75;;;5.10;99.90;;;;;;5027329;28;20270;-76
2024/01/06 02:43:10;;;;;;;12.63;6.30;;;5.20;99.90;;;;;;5030558;28;20272;-76
2024/01/06 02:45:56;;;;;;;7.80;5.05;;;5.20;99.90;;;;;;5028624;28;20199;-77
2024/01/06 02:48:42;;;;;;;9.90;4.30;;;5.20;99.90;;;;;;5032542;28;20306;-76
2024/01/06 02:51:27;;;;;;;12.23;3.87;;;5.20;99.90;;;;;;5037024;28;20251;-75
2024/01/06 02:54:13;;;;;;;8.03;3.60;;;5.20;99.90;;;;;;5038209;28;21048;-75
2024/01/06 02:57:00;;;;;;;9.48;3.72;;;5.20;99.90;;;;;;5028845;28;20431;-76
2024/01/06 02:59:46;;;;;;;11.57;3.50;;;5.20;99.90;;;;;;5031727;28;20220;-76
2024/01/06 03:02:32;;;;;;;8.57;3.57;;;5.30;99.90;;;;;;5034887;28;20207;-76
2024/01/06 03:05:18;;;;;;;12.00;3.30;;;5.30;99.90;;;;;;5029075;28;20541;-77
2024/01/06 03:08:05;;;;;;;7.13;4.10;;;5.30;99.90;;;;;;5023018;28;21073;-76
2024/01/06 03:10:51;;;;;;;8.87;3.70;;;5.40;99.90;;;;;;5028021;28;20211;-76
2024/01/06 03:13:38;;;;;;;15.13;4.05;;;5.30;99.90;;;;;;5025202;28;20486;-74
2024/01/06 03:16:23;;;;;;;12.17;3.67;;;5.40;99.90;;;;;;5029433;28;20701;-77
2024/01/06 03:19:09;;;;;;;6.50;2.80;;;5.50;99.90;;;;;;5032956;28;21003;-75
2024/01/06 03:21:54;;;;;;;6.95;3.00;;;5.50;99.90;;;;;;5031126;28;20428;-75
2024/01/06 03:24:41;;;;;;;5.35;2.88;;;5.50;99.90;;;;;;5028694;28;20225;-75
2024/01/06 03:27:27;;;;;;;6.50;3.00;;;5.50;99.90;;;;;;5032057;28;20206;-77
2024/01/06 03:30:15;;;;;;;7.00;3.13;;;5.60;99.90;;;;;;5023293;28;20499;-76
2024/01/06 03:33:01;;;;;;;9.27;3.27;;;5.60;99.90;;;;;;5039142;28;21034;-76
2024/01/06 03:35:47;;;;;;;5.97;3.13;;;5.60;99.90;;;;;;5029108;28;20592;-75
2024/01/06 03:38:32;;;;;;;6.17;2.77;;;5.60;99.90;;;;;;5021751;28;20231;-76
2024/01/06 03:41:18;;;;;;;5.35;3.00;;;5.60;99.90;;;;;;5027329;28;20465;-76
2024/01/06 03:44:04;;;;;;;5.03;2.60;;;5.60;99.90;;;;;;5026239;28;20725;-76
2024/01/06 03:46:51;;;;;;;7.70;3.00;;;5.70;99.90;;;;;;5025264;28;20834;-76
2024/01/06 03:49:37;;;;;;;5.73;3.20;;;5.70;99.90;;;;;;5026762;28;20235;-74
2024/01/06 03:52:22;;;;;;;9.87;4.17;;;5.70;99.90;;;;;;5036042;28;20455;-74
2024/01/06 03:55:08;;;;;;;6.50;3.70;;;5.70;99.90;;;;;;5022723;28;20446;-76
2024/01/06 03:57:54;;;;;;;6.03;3.25;;;5.80;99.90;;;;;;5035737;28;20492;-77
2024/01/06 04:00:39;;;;;;;6.03;3.40;;;5.80;99.90;;;;;;5025583;28;20583;-76
2024/01/06 04:03:27;;;;;;;5.45;2.90;;;5.90;99.90;;;;;;5020925;28;20452;-76
2024/01/06 04:06:12;;;;;;;4.80;3.17;;;5.90;99.90;;;;;;5035591;28;20203;-78
2024/01/06 04:08:58;;;;;;;5.37;3.30;;;6.00;99.90;;;;;;5046763;28;20603;-78
2024/01/06 04:11:43;;;;;;;8.90;3.33;;;6.10;99.90;;;;;;5031890;28;20416;-77
2024/01/06 04:14:29;;;;;;;5.87;3.30;;;6.20;99.90;;;;;;5033386;28;20441;-77
2024/01/06 04:17:15;;;;;;;4.67;2.53;;;6.20;99.90;;;;;;5036309;28;20454;-77
2024/01/06 04:20:02;;;;;;;8.73;2.87;;;6.20;99.90;;;;;;5025766;28;20458;-78
2024/01/06 04:22:47;;;;;;;8.73;2.70;;;6.20;99.90;;;;;;5039239;28;20453;-77
2024/01/06 04:25:33;;;;;;;6.37;2.87;;;6.20;99.90;;;;;;5029358;28;20530;-77
2024/01/06 04:28:18;;;;;;;10.83;2.90;;;6.30;99.90;;;;;;5030697;28;20481;-79
2024/01/06 04:31:04;;;;;;;5.60;2.73;;;6.30;99.90;;;;;;5033064;28;20502;-77
2024/01/06 04:33:50;;;;;;;7.70;3.03;;;6.30;99.90;;;;;;5031931;28;20454;-78
2024/01/06 04:36:37;;;;;;;8.27;3.10;;;6.20;99.90;;;;;;5034404;28;20471;-77
2024/01/06 04:39:22;;;;;;;3.47;2.67;;;6.30;99.90;;;;;;5029728;28;20473;-77
2024/01/06 04:42:08;;;;;;;5.63;2.73;;;6.30;99.90;;;;;;5027527;28;21267;-77
2024/01/06 04:44:53;;;;;;;4.60;3.30;;;6.30;99.90;;;;;;5030494;28;20525;-77
2024/01/06 04:47:39;;;;;;;10.90;2.97;;;6.30;99.90;;;;;;5032306;28;20441;-78
2024/01/06 04:50:25;;;;;;;5.27;2.33;;;6.40;99.90;;;;;;5035426;28;20574;-79
2024/01/06 04:53:12;;;;;;;3.10;2.00;;;6.40;99.90;;;;;;5036002;28;20956;-76
2024/01/06 04:55:57;;;;;;;6.30;3.00;;;6.40;99.90;;;;;;5037452;28;20519;-78
2024/01/06 04:58:43;;;;;;;5.63;2.53;;;6.30;99.90;;;;;;5036651;28;20474;-78
2024/01/06 05:01:29;;;;;;;6.23;2.43;;;6.40;99.90;;;;;;5028322;28;20443;-78
2024/01/06 05:04:15;;;;;;;5.03;2.30;;;6.30;99.90;;;;;;5025318;28;20453;-77
2024/01/06 05:07:00;;;;;;;8.03;2.63;;;6.30;99.90;;;;;;5034343;28;20445;-78
2024/01/06 05:09:50;;;;;;;7.43;2.97;;;6.30;99.90;;;;;;5040003;28;20490;-77
2024/01/06 05:12:35;;;;;;;4.53;2.27;;;6.30;99.90;;;;;;5040527;28;21107;-76
2024/01/06 05:15:21;;;;;;;6.97;3.07;;;6.40;99.90;;;;;;5037930;28;20432;-77
2024/01/06 05:18:07;;;;;;;8.47;2.87;;;6.30;99.90;;;;;;5037912;28;20608;-76
2024/01/06 05:20:54;;;;;;;3.90;2.80;;;6.30;99.90;;;;;;5040019;28;20490;-77
2024/01/06 05:23:40;;;;;;;6.60;3.13;;;6.30;99.90;;;;;;5044979;28;20806;-77
2024/01/06 05:26:29;;;;;;;5.13;2.80;;;6.30;99.90;;;;;;5037890;28;20472;-77
2024/01/06 05:29:14;;;;;;;4.63;2.57;;;6.40;99.90;;;;;;5030598;28;20557;-77
2024/01/06 05:32:00;;;;;;;15.07;3.60;;;6.30;99.90;;;;;;5041814;28;20448;-76
2024/01/06 05:34:46;;;;;;;3.23;2.63;;;6.40;99.90;;;;;;5044316;28;20442;-76
2024/01/06 05:37:33;;;;;;;8.30;3.10;;;6.40;99.90;;;;;;5041395;28;20556;-77
2024/01/06 05:40:19;;;;;;;4.17;2.60;;;6.40;99.90;;;;;;5036161;28;20444;-77
2024/01/06 05:43:06;;;;;;;3.60;2.33;;;6.50;99.90;;;;;;5036382;28;20445;-77
2024/01/06 05:45:52;;;;;;;8.67;2.77;;;6.50;99.90;;;;;;5043863;28;20642;-77
2024/01/06 05:48:40;;;;;;;7.13;3.00;;;6.40;99.90;;;;;;5064892;28;20533;-77
2024/01/06 05:51:27;;;;;;;7.37;3.33;;;6.40;99.90;;;;;;5047519;28;20440;-77
2024/01/06 05:54:14;;;;;;;8.57;3.30;;;6.50;99.90;;;;;;5042413;28;20497;-77
2024/01/06 05:57:00;;;;;;;9.23;3.70;;;6.50;99.90;;;;;;5042731;28;20530;-77
2024/01/06 05:59:47;;;;;;;8.57;3.07;;;6.50;99.90;;;;;;5036106;28;20477;-77
2024/01/06 06:02:34;;;;;;;7.53;3.72;;;6.50;99.90;;;;;;5040251;28;20892;-77
2024/01/06 06:05:21;;;;;;;5.85;3.47;;;6.40;99.90;;;;;;5041393;28;20243;-77
2024/01/06 06:08:06;;;;;;;13.00;3.00;;;6.50;99.90;;;;;;5039422;28;20710;-77
2024/01/06 06:11:01;;;;;;;5.73;3.90;;;6.50;99.90;;;;;;5045864;28;20442;-77
2024/01/06 06:13:47;;;;;;;5.67;3.17;;;6.50;99.90;;;;;;5037282;28;20576;-77
2024/01/06 06:16:35;;;;;;;6.77;3.40;;;6.50;99.90;;;;;;5037902;28;20527;-77
2024/01/06 06:19:21;;;;;;;6.33;3.40;;;6.50;99.90;;;;;;5035599;28;20484;-77
2024/01/06 06:22:09;;;;;;;10.43;3.33;;;6.50;99.90;;;;;;5043705;28;20441;-77
2024/01/06 06:24:55;;;;;;;7.30;3.40;;;6.50;99.90;;;;;;5033728;28;20479;-76
2024/01/06 06:27:41;;;;;;;9.47;3.67;;;6.60;99.90;;;;;;5042099;28;20445;-76
2024/01/06 06:30:29;;;;;;;9.30;3.40;;;6.50;99.90;;;;;;5038159;28;20450;-77
2024/01/06 06:33:16;;;;;;;5.80;3.22;;;6.50;99.90;;;;;;5044317;28;20450;-77
2024/01/06 06:36:03;;;;;;;9.13;3.20;;;6.50;99.90;;;;;;5041134;28;20679;-77
2024/01/06 06:41:54;;;;;;;5.77;3.73;;;6.50;99.90;;;;;;5040094;28;20925;-77
2024/01/06 06:45:40;;;;;;;8.63;3.87;;;6.50;99.90;;;;;;5041535;28;20547;-77
2024/01/06 06:51:46;;;;;;;9.13;3.40;;;6.50;99.90;;;;;;5034607;28;20590;-77
2024/01/06 06:54:39;;;;;;;5.33;2.83;;;6.50;99.90;;;;;;5041415;28;20457;-77
2024/01/06 07:04:27;;;;;;;9.68;3.60;;;6.50;99.90;;;;;;5037008;28;20248;-76
2024/01/06 07:10:25;;;;;;;6.87;4.03;;;6.50;99.90;;;;;;5040417;28;20432;-76
2024/01/06 07:13:12;;;;;;;8.30;3.40;;;6.50;99.90;;;;;;5031218;28;20447;-76
2024/01/06 07:15:58;;;;;;;5.30;3.30;;;6.50;99.90;;;;;;5037367;28;20490;-77
2024/01/06 07:18:44;;;;;;;5.40;3.23;;;6.50;99.90;;;;;;5036164;28;20482;-77
2024/01/06 07:21:31;;;;;;;11.20;3.80;;;6.40;99.90;;;;;;5035106;28;20451;-77
2024/01/06 07:24:17;;;;;;;6.15;3.70;;;6.40;99.90;;;;;;5034591;28;20745;-77
2024/01/06 07:27:04;;;;;;;5.10;2.80;;;6.50;99.90;;;;;;5031380;28;20288;-77
2024/01/06 07:29:49;;;;;;;6.83;3.60;;;6.50;99.90;;;;;;5039541;28;20445;-76
2024/01/06 07:32:36;;;;;;;10.13;4.85;;;6.50;99.90;;;;;;5035962;28;20451;-76
2024/01/06 07:35:21;;;;;;;6.07;4.30;;;6.50;99.90;;;;;;5040597;28;20565;-76
2024/01/06 07:38:08;;;;;;;10.57;4.30;;;6.50;99.90;;;;;;5031376;28;21445;-77
2024/01/06 07:40:55;;;;;;;12.23;4.47;;;6.40;99.90;;;;;;5042390;28;20657;-77
2024/01/06 07:43:41;;;;;;;5.95;3.63;;;6.50;99.90;;;;;;5037129;28;20449;-77
2024/01/06 07:46:26;;;;;;;8.13;4.40;;;6.50;99.90;;;;;;5052451;28;20242;-76
2024/01/06 07:49:12;;;;;;;8.10;4.00;;;6.50;99.90;;;;;;5046174;28;20241;-77
2024/01/06 07:51:58;;;;;;;7.25;3.80;;;6.50;99.90;;;;;;5038984;28;20444;-77
2024/01/06 07:54:45;;;;;;;5.53;4.20;;;6.40;99.90;;;;;;5038491;28;20273;-77
2024/01/06 07:57:30;;;;;;;10.03;5.80;;;6.50;99.90;;;;;;5036696;28;20446;-76
2024/01/06 08:00:17;;;;;;;14.20;9.77;;;6.60;99.90;;;;;;5043758;28;20458;-77
2024/01/06 08:03:05;;;;;;;8.70;6.10;;;6.60;99.90;;;;;;5030252;28;20447;-77
2024/01/06 08:05:51;;;;;;;10.57;5.80;;;6.60;99.90;;;;;;5035853;28;21109;-77
2024/01/06 08:08:37;;;;;;;8.03;5.90;;;6.60;99.90;;;;;;5034925;28;21016;-77
2024/01/06 08:11:24;;;;;;;10.23;5.87;;;6.60;99.90;;;;;;5042314;28;20447;-76
2024/01/06 08:14:10;;;;;;;12.60;7.70;;;6.60;99.90;;;;;;5048095;28;20450;-77
2024/01/06 08:16:56;;;;;;;12.03;9.10;;;6.60;99.90;;;;;;5043480;28;20598;-76
2024/01/06 08:19:42;;;;;;;14.27;8.70;;;6.60;99.90;;;;;;5037991;28;20466;-76
2024/01/06 08:22:28;;;;;;;9.80;6.73;;;6.60;99.90;;;;;;5037059;28;20862;-76
2024/01/06 08:25:14;;;;;;;7.40;4.60;;;6.70;99.90;;;;;;5042481;28;20444;-77
2024/01/06 08:28:01;;;;;;;11.83;4.93;;;6.70;99.90;;;;;;5037409;28;20874;-76
2024/01/06 08:30:47;;;;;;;10.03;4.07;;;6.70;99.90;;;;;;5036098;28;20443;-77
2024/01/06 08:33:33;;;;;;;18.60;8.00;;;6.70;99.90;;;;;;5036466;28;20541;-76
2024/01/06 08:36:18;;;;;;;11.73;6.60;;;6.70;99.90;;;;;;5038758;28;20488;-76
2024/01/06 08:39:04;;;;;;;12.10;6.00;;;6.70;99.90;;;;;;5041079;28;20499;-76
2024/01/06 08:41:50;;;;;;;12.93;4.57;;;6.70;99.90;;;;;;5047018;28;20453;-77
2024/01/06 08:44:37;;;;;;;11.33;4.40;;;6.70;99.90;;;;;;5035262;28;20461;-76
2024/01/06 08:47:22;;;;;;;6.70;5.13;;;6.70;99.90;;;;;;5035800;28;20613;-77
2024/01/06 08:50:09;;;;;;;8.63;5.17;;;6.70;99.90;;;;;;5040071;28;20533;-76
2024/01/06 08:52:54;;;;;;;11.60;4.73;;;6.70;99.90;;;;;;5047077;28;20928;-76
2024/01/06 08:55:40;;;;;;;6.60;4.60;;;6.80;99.90;;;;;;5043848;28;20923;-76
2024/01/06 08:58:27;;;;;;;14.90;7.20;;;6.80;99.90;;;;;;5038654;28;20847;-77
2024/01/06 09:01:14;;;;;;;10.47;5.77;;;6.90;99.90;;;;;;5040371;28;20439;-76
2024/01/06 09:04:00;;;;;;;9.47;5.20;;;6.90;99.90;;;;;;5039245;28;20449;-76
2024/01/06 09:06:46;;;;;;;7.70;5.10;;;6.80;99.90;;;;;;5053230;28;20499;-75
2024/01/06 09:09:32;;;;;;;8.67;5.00;;;6.80;99.90;;;;;;5039655;28;20485;-75
2024/01/06 09:12:17;;;;;;;9.80;5.27;;;6.80;99.90;;;;;;5034432;28;20448;-76
2024/01/06 09:15:03;;;;;;;9.27;5.00;;;6.90;99.90;;;;;;5043337;28;20468;-76
2024/01/06 09:17:50;;;;;;;7.57;4.80;;;6.80;99.90;;;;;;5042527;28;20445;-76
2024/01/06 09:20:36;;;;;;;15.13;4.90;;;6.90;99.90;;;;;;5038666;28;20479;-76
2024/01/06 09:23:22;;;;;;;12.20;4.87;;;6.90;99.90;;;;;;5038757;28;20457;-76
2024/01/06 09:26:08;;;;;;;7.90;4.67;;;6.80;99.90;;;;;;5039501;28;20986;-76
2024/01/06 09:28:53;;;;;;;8.00;5.03;;;6.80;99.90;;;;;;5042170;28;20459;-76
2024/01/06 09:31:39;;;;;;;7.47;5.40;;;6.80;99.90;;;;;;5036646;28;20447;-76
2024/01/06 09:34:26;;;;;;;13.27;8.17;;;6.70;99.90;;;;;;5053712;28;20531;-75
2024/01/06 09:37:11;;;;;;;14.93;8.20;;;6.80;99.90;;;;;;5031575;28;20467;-77
2024/01/06 09:39:57;;;;;;;17.50;9.60;;;6.80;99.90;;;;;;5044165;28;20973;-76
2024/01/06 09:42:43;;;;;;;12.77;6.97;;;6.80;99.90;;;;;;5066617;28;20490;-76
2024/01/06 09:45:30;;;;;;;11.80;6.37;;;6.80;99.90;;;;;;5049943;28;20507;-76
2024/01/06 09:48:17;;;;;;;12.83;5.10;;;6.90;99.90;;;;;;5036670;28;20474;-76
2024/01/06 09:51:06;;;;;;;10.20;5.53;;;6.90;99.90;;;;;;5034245;28;20447;-75
2024/01/06 09:53:58;;;;;;;6.53;5.47;;;6.80;99.90;;;;;;5044356;28;20446;-76
2024/01/06 09:56:47;;;;;;;8.10;5.83;;;6.90;99.90;;;;;;5038458;28;21565;-76
2024/01/06 09:59:34;;;;;;;15.10;6.40;;;6.90;99.90;;;;;;5037247;28;20506;-76
2024/01/06 10:02:22;;;;;;;16.83;9.50;;;7.00;99.90;;;;;;5040000;28;20451;-76
2024/01/06 10:05:09;;;;;;;15.20;7.90;;;7.00;99.90;;;;;;5033563;28;20490;-76
2024/01/06 10:07:56;;;;;;;8.03;5.63;;;7.10;99.90;;;;;;5040600;28;20613;-76
2024/01/06 10:10:41;;;;;;;8.87;5.07;;;7.10;99.90;;;;;;5038702;28;20448;-76
2024/01/06 10:13:28;;;;;;;7.70;5.15;;;7.00;99.90;;;;;;5041702;28;20894;-76
2024/01/06 10:16:13;;;;;;;8.80;5.50;;;7.00;99.90;;;;;;5043043;28;20199;-75
2024/01/06 10:19:00;;;;;;;11.53;6.27;;;7.00;99.90;;;;;;5031953;28;20470;-75
2024/01/06 10:21:46;;;;;;;9.73;6.40;;;7.00;99.90;;;;;;5040248;28;20518;-76
2024/01/06 10:24:33;;;;;;;7.70;5.60;;;7.10;99.90;;;;;;5043615;28;20442;-77
2024/01/06 10:27:18;;;;;;;11.20;5.60;;;7.10;99.90;;;;;;5034460;28;20493;-76
2024/01/06 10:30:05;;;;;;;8.50;5.80;;;7.10;99.90;;;;;;5029254;28;20478;-77
2024/01/06 10:32:52;;;;;;;8.70;5.90;;;7.10;99.90;;;;;;5040139;28;20463;-76
2024/01/06 10:35:38;;;;;;;9.87;5.50;;;7.20;99.90;;;;;;5024396;28;20451;-76
2024/01/06 10:38:24;;;;;;;8.30;5.80;;;7.20;99.90;;;;;;5037217;28;20474;-77
2024/01/06 10:41:14;;;;;;;10.97;6.20;;;7.20;99.90;;;;;;5034723;28;20533;-77
2024/01/06 10:44:02;;;;;;;9.23;5.00;;;7.20;99.90;;;;;;5038180;28;20479;-76
2024/01/06 10:46:49;;;;;;;10.93;6.03;;;7.20;99.90;;;;;;5025896;28;20463;-79
2024/01/06 10:49:36;;;;;;;7.67;4.73;;;7.30;99.90;;;;;;5029601;28;20482;-76
2024/01/06 10:52:23;;;;;;;7.30;5.30;;;7.30;99.90;;;;;;5026717;28;20522;-76
2024/01/06 10:55:09;;;;;;;10.37;6.10;;;7.30;99.90;;;;;;5034143;28;20476;-76
2024/01/06 10:57:57;;;;;;;10.73;6.20;;;7.30;99.90;;;;;;5026983;28;21062;-76
2024/01/06 11:00:42;;;;;;;6.30;5.30;;;7.30;99.90;;;;;;5029773;28;20446;-76
2024/01/06 11:03:30;;;;;;;8.40;6.10;;;7.30;99.90;;;;;;5029125;28;20834;-77
2024/01/06 11:06:17;;;;;;;10.73;5.77;;;7.30;99.90;;;;;;5021941;28;20476;-77
2024/01/06 11:09:09;;;;;;;14.80;6.37;;;7.30;99.90;;;;;;5024378;28;20969;-78
2024/01/06 11:11:56;;;;;;;12.10;6.80;;;7.30;99.90;;;;;;5025797;28;20460;-77
2024/01/06 11:14:45;;;;;;;13.70;6.20;;;7.40;99.90;;;;;;5026022;28;21022;-78
2024/01/06 11:17:50;;;;;;;11.80;6.73;;;7.50;99.90;;;;;;5025610;28;20470;-78
2024/01/06 11:20:36;;;;;;;8.50;6.20;;;7.40;99.90;;;;;;5023791;28;21020;-77
2024/01/06 11:23:21;;;;;;;11.73;7.67;;;7.40;99.90;;;;;;5026025;28;20455;-77
2024/01/06 11:26:08;;;;;;;9.10;7.60;;;7.40;99.90;;;;;;5024832;28;20458;-77
2024/01/06 11:28:55;;;;;;;9.10;7.33;;;7.40;99.90;;;;;;5025471;28;20477;-77
2024/01/06 11:31:43;;;;;;;11.57;7.47;;;7.30;99.90;;;;;;5024930;28;20974;-77
2024/01/06 11:34:32;;;;;;;11.63;7.03;;;7.40;99.90;;;;;;5021571;28;20461;-76
2024/01/06 11:37:20;;;;;;;13.17;7.83;;;7.40;99.90;;;;;;5023575;28;20419;-75
2024/01/06 11:40:13;;;;;;;10.73;7.00;;;7.30;99.90;;;;;;5029024;28;20509;-75
2024/01/06 11:43:01;;;;;;;10.43;7.00;;;7.30;99.90;;;;;;5026860;28;20451;-75
2024/01/06 11:45:46;;;;;;;9.93;7.63;;;7.30;99.90;;;;;;5021423;28;20811;-73
2024/01/06 11:48:34;;;;;;;8.30;6.77;;;7.40;99.90;;;;;;5022294;28;20497;-76
2024/01/06 11:51:20;;;;;;;9.70;6.20;;;7.40;99.90;;;;;;5034188;28;20426;-76
2024/01/06 11:54:06;;;;;;;10.03;7.20;;;7.40;99.90;;;;;;5028403;28;20542;-76
2024/01/06 11:56:53;;;;;;;12.30;7.60;;;7.50;99.90;;;;;;5024829;28;20957;-75
2024/01/06 11:59:38;;;;;;;11.50;8.20;;;7.50;99.90;;;;;;5018906;28;20563;-75
2024/01/06 12:02:25;;;;;;;14.20;8.37;;;7.40;99.90;;;;;;5020751;28;20859;-76
2024/01/06 12:05:16;;;;;;;9.80;7.60;;;7.40;99.90;;;;;;5025405;28;20426;-77
2024/01/06 12:08:06;;;;;;;10.43;7.50;;;7.40;99.90;;;;;;5030640;28;20465;-75
2024/01/06 12:11:02;;;;;;;12.60;7.13;;;7.40;99.90;;;;;;5025378;28;20592;-74
2024/01/06 12:13:47;;;;;;;10.17;7.43;;;7.50;99.90;;;;;;5021154;28;20882;-75
2024/01/06 12:16:33;;;;;;;14.53;9.80;;;7.60;99.90;;;;;;5027152;28;20926;-76
2024/01/06 12:19:19;;;;;;;10.27;7.70;;;7.60;99.90;;;;;;5025765;28;20450;-77
2024/01/06 12:22:07;;;;;;;16.30;8.23;;;7.60;99.90;;;;;;5031958;28;20454;-76
2024/01/06 12:24:52;;;;;;;11.63;9.20;;;7.60;99.90;;;;;;5026685;28;20511;-75
2024/01/06 12:27:43;;;;;;;12.87;9.27;;;7.60;99.90;;;;;;5027515;28;20475;-76
2024/01/06 12:30:30;;;;;;;16.10;8.50;;;7.50;99.90;;;;;;5028103;28;20477;-76
2024/01/06 12:33:15;;;;;;;12.00;7.93;;;7.50;99.90;;;;;;5021870;28;20454;-76
2024/01/06 12:36:01;;;;;;;13.63;9.30;;;7.40;99.90;;;;;;5030215;28;20504;-77
2024/01/06 12:38:48;;;;;;;13.50;9.10;;;7.50;99.90;;;;;;5031640;28;20474;-75
2024/01/06 12:41:34;;;;;;;15.87;9.70;;;7.50;99.90;;;;;;5034506;28;21044;-75
2024/01/06 12:44:20;;;;;;;17.43;9.60;;;7.50;99.90;;;;;;5045316;28;20449;-77
2024/01/06 12:47:06;;;;;;;14.50;9.70;;;7.40;99.90;;;;;;5027856;28;20828;-76
2024/01/06 12:49:51;;;;;;;20.47;10.83;;;7.40;99.90;;;;;;5032428;28;20450;-75
2024/01/06 12:52:38;;;;;;;19.40;10.90;;;7.40;99.90;;;;;;5035792;28;20497;-75
2024/01/06 12:55:25;;;;;;;14.90;10.50;;;7.40;99.90;;;;;;5033003;28;20447;-75
2024/01/06 12:58:11;;;;;;;12.30;8.90;;;7.50;99.90;;;;;;5028692;28;20463;-75
2024/01/06 13:00:56;;;;;;;12.37;9.27;;;7.50;99.90;;;;;;5029444;28;20881;-75
2024/01/06 13:03:43;;;;;;;15.30;10.80;;;7.50;99.90;;;;;;5032621;28;20875;-77
2024/01/06 13:06:29;;;;;;;13.33;9.67;;;7.50;99.90;;;;;;5030452;28;20471;-76
2024/01/06 13:09:16;;;;;;;14.67;9.53;;;7.50;99.90;;;;;;5030276;28;20486;-75
2024/01/06 13:12:03;;;;;;;11.93;9.87;;;7.50;99.90;;;;;;5025778;28;20455;-74
2024/01/06 13:14:49;;;;;;;12.13;9.40;;;7.60;99.90;;;;;;5030039;28;20949;-76
2024/01/06 13:17:35;;;;;;;12.43;10.20;;;7.60;99.90;;;;;;5030468;28;20446;-75
2024/01/06 13:20:20;;;;;;;15.70;10.10;;;7.70;99.90;;;;;;5024387;28;20563;-76
2024/01/06 13:23:06;;;;;;;13.70;9.80;;;7.70;99.90;;;;;;5029194;28;20603;-76
2024/01/06 13:25:52;;;;;;;14.07;10.27;;;7.70;99.90;;;;;;5024187;28;20527;-75
2024/01/06 13:28:38;;;;;;;14.00;11.00;;;7.60;99.90;;;;;;5027542;28;20580;-76
2024/01/06 13:31:24;;;;;;;14.33;11.27;;;7.50;99.90;;;;;;5027908;28;20453;-75
2024/01/06 13:34:10;;;;;;;13.23;10.13;;;7.50;99.90;;;;;;5021250;28;20598;-73
2024/01/06 13:36:57;;;;;;;13.20;9.90;;;7.50;99.90;;;;;;5029435;28;20561;-76
2024/01/06 13:39:42;;;;;;;17.53;10.97;;;7.60;99.90;;;;;;5035632;28;21036;-77
2024/01/06 13:42:28;;;;;;;13.83;11.27;;;7.50;99.90;;;;;;5031321;28;20443;-75
2024/01/06 13:45:15;;;;;;;15.00;11.20;;;7.50;99.90;;;;;;5028212;28;20454;-75
2024/01/06 13:48:02;;;;;;;13.23;10.23;;;7.50;99.90;;;;;;5030358;28;20450;-76
2024/01/06 13:50:48;;;;;;;16.07;10.87;;;7.50;99.90;;;;;;5021624;28;20439;-75
2024/01/06 13:53:36;;;;;;;16.40;11.30;;;7.50;99.90;;;;;;5032012;28;20812;-77
2024/01/06 13:56:23;;;;;;;17.03;11.70;;;7.50;99.90;;;;;;5024520;28;20447;-76
2024/01/06 13:59:09;;;;;;;17.80;11.40;;;7.50;99.90;;;;;;5028256;28;20486;-78
2024/01/06 14:01:56;;;;;;;11.53;10.30;;;7.60;99.90;;;;;;5029832;28;20968;-75
2024/01/06 14:04:42;;;;;;;17.13;11.90;;;7.60;99.90;;;;;;5031325;28;20495;-75
2024/01/06 14:07:27;;;;;;;15.13;10.60;;;7.60;99.90;;;;;;5030120;28;20470;-75
2024/01/06 14:10:14;;;;;;;22.20;12.17;;;7.60;99.90;;;;;;5030603;28;20937;-74
2024/01/06 14:13:00;;;;;;;21.77;13.70;;;7.50;99.90;;;;;;5028817;28;20491;-75
2024/01/06 14:15:45;;;;;;;19.60;12.80;;;7.60;99.90;;;;;;5026121;28;20505;-77
2024/01/06 14:18:33;;;;;;;14.90;11.63;;;7.50;99.90;;;;;;5033087;28;20488;-76
2024/01/06 14:21:19;;;;;;;17.33;11.83;;;7.60;99.90;;;;;;5031373;28;20447;-75
2024/01/06 14:24:06;;;;;;;17.17;12.60;;;7.60;99.90;;;;;;5038963;28;20508;-76
2024/01/06 14:26:52;;;;;;;18.90;12.57;;;7.50;99.90;;;;;;5030502;28;20449;-75
2024/01/06 14:29:39;;;;;;;16.60;13.03;;;7.50;99.90;;;;;;5030418;28;20457;-76
2024/01/06 14:32:24;;;;;;;19.97;12.87;;;7.60;99.90;;;;;;5029384;28;20452;-75
2024/01/06 14:35:13;;;;;;;19.57;12.53;;;7.60;99.90;;;;;;5028343;28;20848;-76
2024/01/06 14:37:58;;;;;;;17.87;11.73;;;7.60;99.90;;;;;;5029884;28;20513;-76
2024/01/06 14:40:44;;;;;;;15.90;11.93;;;7.50;99.90;;;;;;5031499;28;20446;-75
2024/01/06 14:43:30;;;;;;;23.23;11.70;;;7.50;99.90;;;;;;5026695;28;20502;-75
2024/01/06 14:46:15;;;;;;;15.00;11.70;;;7.50;99.90;;;;;;5022640;28;20876;-75
2024/01/06 14:49:01;;;;;;;16.37;12.13;;;7.60;99.90;;;;;;5028176;28;20830;-75